createdAt,value
2018-08-24T00:00:19.865Z,22.59
2018-08-24T00:02:48.661Z,22.53
2018-08-24T00:05:17.373Z,22.45
2018-08-24T00:07:46.189Z,22.31
2018-08-24T00:10:14.892Z,22.21
2018-08-24T00:12:43.573Z,22.14
2018-08-24T00:15:12.195Z,22.01
2018-08-24T00:17:45.048Z,21.87
2018-08-24T00:20:13.751Z,21.83
2018-08-24T00:22:42.802Z,21.84
2018-08-24T00:25:11.465Z,21.84
2018-08-24T00:27:41.328Z,21.71
2018-08-24T00:30:10.095Z,21.58
2018-08-24T00:32:38.822Z,21.57
2018-08-24T00:35:08.372Z,21.48
2018-08-24T00:37:37.017Z,21.35
2018-08-24T00:40:05.973Z,21.33
2018-08-24T00:42:34.880Z,21.31
2018-08-24T00:45:03.540Z,21.35
2018-08-24T00:47:33.228Z,21.38
2018-08-24T00:50:01.933Z,21.39
2018-08-24T00:52:30.601Z,21.39
2018-08-24T00:54:59.269Z,21.37
2018-08-24T00:57:27.989Z,21.37
2018-08-24T00:59:56.666Z,21.38
2018-08-24T01:02:25.499Z,21.37
2018-08-24T01:04:55.317Z,21.38
2018-08-24T01:07:24.921Z,21.35
2018-08-24T01:09:53.530Z,21.35
2018-08-24T01:12:22.205Z,21.34
2018-08-24T01:14:50.763Z,21.32
2018-08-24T01:17:25.276Z,21.29
2018-08-24T01:19:53.966Z,21.27
2018-08-24T01:22:22.912Z,21.26
2018-08-24T01:24:51.468Z,21.27
2018-08-24T01:27:20.460Z,21.25
2018-08-24T01:29:49.187Z,21.17
2018-08-24T01:32:17.834Z,21.00
2018-08-24T01:34:46.521Z,20.78
2018-08-24T01:37:15.161Z,20.57
2018-08-24T01:39:44.260Z,20.44
2018-08-24T01:42:12.817Z,20.40
2018-08-24T01:44:41.413Z,20.45
2018-08-24T01:47:10.208Z,20.37
2018-08-24T01:49:39.182Z,20.27
2018-08-24T01:52:07.824Z,20.25
2018-08-24T01:54:36.536Z,20.27
2018-08-24T01:57:05.355Z,20.32
2018-08-24T01:59:33.931Z,20.34
2018-08-24T02:02:02.636Z,20.38
2018-08-24T02:04:31.328Z,20.42
2018-08-24T02:06:59.948Z,20.46
2018-08-24T02:09:28.600Z,20.54
2018-08-24T02:11:57.226Z,20.62
2018-08-24T02:14:31.129Z,20.68
2018-08-24T02:16:59.862Z,20.70
2018-08-24T02:19:34.018Z,20.72
2018-08-24T02:22:07.837Z,20.76
2018-08-24T02:24:36.481Z,20.79
2018-08-24T02:27:05.173Z,20.83
2018-08-24T02:29:34.182Z,20.87
2018-08-24T02:32:02.853Z,20.93
2018-08-24T02:34:31.718Z,20.97
2018-08-24T02:37:00.457Z,21.03
2018-08-24T02:39:30.233Z,21.06
2018-08-24T02:42:00.065Z,21.00
2018-08-24T02:44:28.684Z,20.93
2018-08-24T02:46:57.644Z,20.86
2018-08-24T02:49:26.408Z,20.78
2018-08-24T02:51:55.172Z,20.64
2018-08-24T02:54:24.048Z,20.46
2018-08-24T02:56:53.887Z,20.37
2018-08-24T02:59:22.701Z,20.24
2018-08-24T03:01:51.621Z,20.25
2018-08-24T03:04:20.347Z,20.33
2018-08-24T03:06:49.153Z,20.28
2018-08-24T03:09:19.557Z,20.14
2018-08-24T03:11:48.312Z,20.09
2018-08-24T03:14:17.062Z,20.02
2018-08-24T03:16:51.041Z,19.92
2018-08-24T03:19:19.685Z,19.94
2018-08-24T03:21:48.863Z,20.00
2018-08-24T03:24:17.695Z,19.93
2018-08-24T03:26:46.334Z,19.89
2018-08-24T03:29:15.182Z,19.83
2018-08-24T03:31:44.522Z,19.80
2018-08-24T03:34:13.485Z,19.73
2018-08-24T03:36:42.218Z,19.59
2018-08-24T03:39:11.123Z,19.46
2018-08-24T03:41:40.049Z,19.40
2018-08-24T03:44:08.958Z,19.40
2018-08-24T03:46:37.605Z,19.39
2018-08-24T03:49:06.409Z,19.35
2018-08-24T03:51:35.049Z,19.28
2018-08-24T03:54:07.929Z,19.36
2018-08-24T03:56:36.824Z,19.43
2018-08-24T03:59:05.791Z,19.42
2018-08-24T04:01:34.457Z,19.42
2018-08-24T04:04:03.860Z,19.41
2018-08-24T04:06:33.001Z,19.38
2018-08-24T04:09:01.657Z,19.46
2018-08-24T04:11:30.392Z,19.54
2018-08-24T04:13:59.283Z,19.59
2018-08-24T04:16:28.072Z,19.59
2018-08-24T04:18:56.844Z,19.63
2018-08-24T04:24:46.689Z,19.56
2018-08-24T04:27:15.377Z,19.57
2018-08-24T04:29:44.072Z,19.55
2018-08-24T04:32:12.848Z,19.51
2018-08-24T04:34:41.497Z,19.49
2018-08-24T04:37:10.104Z,19.48
2018-08-24T04:39:39.024Z,19.52
2018-08-24T04:42:07.636Z,19.61
2018-08-24T04:44:36.310Z,19.68
2018-08-24T04:47:04.973Z,19.77
2018-08-24T04:49:33.852Z,19.89
2018-08-24T04:52:02.517Z,20.06
2018-08-24T04:54:31.248Z,20.19
2018-08-24T04:56:59.973Z,20.37
2018-08-24T04:59:28.647Z,20.53
2018-08-24T05:01:57.414Z,20.67
2018-08-24T05:04:26.299Z,20.92
2018-08-24T05:06:54.956Z,21.22
2018-08-24T05:09:23.653Z,21.32
2018-08-24T05:11:55.349Z,21.40
2018-08-24T05:14:24.028Z,21.41
2018-08-24T05:16:52.585Z,21.49
2018-08-24T05:19:21.348Z,21.63
2018-08-24T05:21:50.265Z,21.71
2018-08-24T05:24:18.937Z,21.74
2018-08-24T05:26:47.536Z,21.59
2018-08-24T05:29:16.222Z,21.51
2018-08-24T05:31:44.978Z,21.45
2018-08-24T05:34:14.441Z,21.48
2018-08-24T05:36:43.640Z,21.54
2018-08-24T05:39:12.333Z,21.60
2018-08-24T05:41:41.017Z,21.58
2018-08-24T05:44:09.682Z,21.63
2018-08-24T05:46:38.538Z,21.71
2018-08-24T05:49:07.169Z,21.72
2018-08-24T05:51:35.781Z,21.78
2018-08-24T05:54:04.456Z,21.92
2018-08-24T05:56:33.120Z,22.03
2018-08-24T05:59:02.022Z,22.19
2018-08-24T06:01:30.730Z,22.37
2018-08-24T06:03:59.326Z,22.54
2018-08-24T06:06:28.018Z,22.70
2018-08-24T06:09:02.105Z,22.87
2018-08-24T06:11:30.946Z,23.01
2018-08-24T06:14:01.302Z,23.17
2018-08-24T06:16:30.023Z,23.32
2018-08-24T06:18:58.708Z,23.46
2018-08-24T06:21:27.422Z,23.55
2018-08-24T06:23:56.193Z,23.60
2018-08-24T06:26:24.825Z,23.70
2018-08-24T06:28:53.388Z,23.78
2018-08-24T06:31:22.085Z,23.85
2018-08-24T06:33:50.710Z,23.95
2018-08-24T06:39:40.133Z,24.23
2018-08-24T06:42:08.768Z,24.34
2018-08-24T06:44:37.588Z,24.51
2018-08-24T06:47:06.560Z,24.64
2018-08-24T06:49:35.216Z,24.77
2018-08-24T06:52:03.888Z,24.91
2018-08-24T06:54:32.492Z,25.05
2018-08-24T06:57:01.288Z,25.20
2018-08-24T06:59:29.976Z,25.32
2018-08-24T07:01:59.580Z,25.41
2018-08-24T07:04:28.289Z,25.55
2018-08-24T07:06:56.974Z,25.62
2018-08-24T07:09:25.670Z,25.70
2018-08-24T07:11:54.322Z,25.88
2018-08-24T07:14:23.087Z,26.04
2018-08-24T07:17:01.991Z,26.20
2018-08-24T07:19:31.580Z,26.43
2018-08-24T07:22:00.712Z,26.72
2018-08-24T07:24:30.003Z,27.01
2018-08-24T07:26:58.689Z,27.27
2018-08-24T07:29:28.876Z,27.35
2018-08-24T07:31:57.596Z,27.44
2018-08-24T07:34:26.279Z,27.52
2018-08-24T07:36:55.105Z,27.56
2018-08-24T07:39:23.897Z,27.52
2018-08-24T07:41:52.678Z,27.55
2018-08-24T07:44:21.299Z,27.63
2018-08-24T07:46:50.012Z,27.66
2018-08-24T07:49:19.397Z,27.56
2018-08-24T07:51:48.185Z,27.74
2018-08-24T07:54:17.009Z,27.98
2018-08-24T07:56:45.626Z,28.07
2018-08-24T07:59:14.497Z,28.24
2018-08-24T08:01:43.740Z,28.14
2018-08-24T08:04:12.438Z,28.14
2018-08-24T08:06:41.357Z,28.25
2018-08-24T08:09:10.067Z,28.27
2018-08-24T08:11:40.938Z,28.27
2018-08-24T08:14:10.339Z,28.20
2018-08-24T08:16:39.005Z,28.14
2018-08-24T08:19:07.717Z,28.03
2018-08-24T08:21:36.384Z,28.00
2018-08-24T08:24:05.133Z,28.03
2018-08-24T08:26:34.947Z,27.96
2018-08-24T08:29:03.593Z,27.59
2018-08-24T08:31:32.333Z,26.31
2018-08-24T08:34:01.610Z,24.81
2018-08-24T08:36:30.306Z,23.65
2018-08-24T08:39:00.087Z,23.09
2018-08-24T08:41:28.768Z,22.45
2018-08-24T08:44:04.689Z,21.97
2018-08-24T08:46:33.702Z,21.64
2018-08-24T08:49:03.360Z,21.48
2018-08-24T08:51:32.285Z,21.44
2018-08-24T08:54:01.426Z,21.48
2018-08-24T08:56:30.245Z,21.55
2018-08-24T08:58:59.117Z,21.68
2018-08-24T09:01:27.843Z,21.83
2018-08-24T09:03:56.556Z,22.03
2018-08-24T09:06:25.776Z,22.19
2018-08-24T09:08:54.383Z,22.35
2018-08-24T09:11:23.124Z,22.49
2018-08-24T09:13:52.340Z,22.68
2018-08-24T09:16:20.934Z,22.93
2018-08-24T09:18:55.029Z,23.20
2018-08-24T09:21:28.909Z,23.54
2018-08-24T09:24:02.972Z,23.88
2018-08-24T09:26:36.944Z,24.13
2018-08-24T09:29:10.865Z,24.32
2018-08-24T09:31:41.435Z,24.48
2018-08-24T09:34:10.164Z,24.74
2018-08-24T09:36:38.847Z,24.96
2018-08-24T09:39:09.004Z,25.12
2018-08-24T09:41:37.874Z,25.21
2018-08-24T09:44:06.754Z,25.32
2018-08-24T09:46:40.757Z,25.54
2018-08-24T09:49:14.900Z,25.79
2018-08-24T09:51:43.525Z,25.88
2018-08-24T09:54:12.197Z,26.09
2018-08-24T09:56:41.412Z,26.19
2018-08-24T09:59:11.212Z,26.27
2018-08-24T10:01:45.116Z,26.41
2018-08-24T10:04:19.000Z,26.66
2018-08-24T10:06:53.416Z,26.86
2018-08-24T10:09:22.042Z,27.05
2018-08-24T10:11:50.699Z,27.22
2018-08-24T10:14:19.392Z,27.22
2018-08-24T10:16:48.001Z,27.22
2018-08-24T10:19:16.760Z,27.20
2018-08-24T10:21:45.425Z,27.12
2018-08-24T10:24:14.188Z,27.08
2018-08-24T10:26:42.849Z,27.09
2018-08-24T10:29:11.611Z,27.23
2018-08-24T10:31:41.394Z,27.19
2018-08-24T10:34:10.061Z,27.38
2018-08-24T10:36:38.785Z,27.56
2018-08-24T10:39:09.375Z,27.78
2018-08-24T10:41:38.405Z,27.91
2018-08-24T10:44:07.204Z,28.07
2018-08-24T10:51:02.060Z,28.27
2018-08-24T10:53:30.945Z,28.51
2018-08-24T10:55:59.864Z,28.61
2018-08-24T10:58:28.614Z,28.71
2018-08-24T11:00:57.308Z,28.96
2018-08-24T11:03:25.996Z,28.93
2018-08-24T11:05:54.961Z,28.87
2018-08-24T11:08:24.565Z,28.93
2018-08-24T11:10:53.249Z,28.81
2018-08-24T11:13:22.123Z,29.01
2018-08-24T11:15:51.802Z,29.21
2018-08-24T11:18:20.470Z,29.30
2018-08-24T11:20:49.405Z,29.42
2018-08-24T11:23:18.540Z,29.55
2018-08-24T11:25:47.306Z,29.82
2018-08-24T11:28:15.983Z,30.00
2018-08-24T11:30:44.573Z,29.83
2018-08-24T11:33:13.331Z,29.89
2018-08-24T11:35:42.105Z,30.07
2018-08-24T11:38:11.849Z,30.29
2018-08-24T11:40:41.110Z,30.06
2018-08-24T11:43:09.833Z,29.79
2018-08-24T11:45:38.508Z,29.19
2018-08-24T11:48:07.192Z,28.92
2018-08-24T11:50:35.885Z,28.79
2018-08-24T11:53:04.690Z,28.31
2018-08-24T11:55:33.742Z,28.13
2018-08-24T11:58:02.537Z,28.27
2018-08-24T12:00:32.680Z,28.19
2018-08-24T12:03:02.539Z,27.90
2018-08-24T12:05:31.654Z,27.73
2018-08-24T12:08:00.680Z,27.52
2018-08-24T12:10:29.478Z,27.27
2018-08-24T12:12:58.647Z,27.02
2018-08-24T12:15:27.408Z,26.89
2018-08-24T12:17:56.677Z,26.71
2018-08-24T12:20:25.448Z,26.36
2018-08-24T12:22:54.705Z,25.73
2018-08-24T12:25:23.418Z,25.23
2018-08-24T12:27:52.120Z,24.66
2018-08-24T12:30:20.814Z,24.01
2018-08-24T12:36:13.433Z,22.72
2018-08-24T12:38:42.415Z,22.62
2018-08-24T12:41:11.820Z,22.72
2018-08-24T12:43:40.560Z,22.96
2018-08-24T12:46:09.570Z,23.38
2018-08-24T12:48:38.517Z,24.04
2018-08-24T12:51:07.104Z,24.95
2018-08-24T12:53:36.657Z,25.60
2018-08-24T12:56:08.849Z,26.31
2018-08-24T12:58:37.570Z,27.23
2018-08-24T13:01:06.273Z,28.20
2018-08-24T13:03:35.048Z,28.21
2018-08-24T13:06:03.985Z,27.83
2018-08-24T13:08:32.884Z,27.44
2018-08-24T13:11:01.521Z,27.11
2018-08-24T13:13:30.232Z,26.78
2018-08-24T13:15:59.133Z,26.47
2018-08-24T13:18:27.890Z,26.23
2018-08-24T13:20:56.851Z,26.05
2018-08-24T13:23:25.679Z,25.89
2018-08-24T13:25:54.826Z,25.73
2018-08-24T13:28:23.517Z,25.57
2018-08-24T13:30:52.414Z,25.48
2018-08-24T13:33:21.256Z,25.52
2018-08-24T13:35:49.961Z,25.66
2018-08-24T13:38:19.689Z,26.58
2018-08-24T13:40:48.499Z,27.65
2018-08-24T13:43:17.296Z,28.21
2018-08-24T13:45:45.957Z,28.17
2018-08-24T13:48:14.669Z,27.97
2018-08-24T13:50:43.957Z,28.04
2018-08-24T13:53:12.694Z,28.49
2018-08-24T13:55:41.486Z,28.60
2018-08-24T13:58:10.290Z,28.97
2018-08-24T14:00:38.973Z,29.49
2018-08-24T14:03:07.600Z,29.78
2018-08-24T14:05:36.334Z,29.90
2018-08-24T14:08:04.970Z,30.19
2018-08-24T14:10:33.918Z,29.82
2018-08-24T14:13:02.639Z,29.07
2018-08-24T14:15:31.199Z,28.34
2018-08-24T14:17:59.801Z,27.83
2018-08-24T14:20:28.561Z,27.71
2018-08-24T14:22:57.170Z,28.25
2018-08-24T14:25:25.927Z,29.10
2018-08-24T14:27:54.648Z,29.09
2018-08-24T14:30:23.359Z,29.30
2018-08-24T14:32:52.144Z,29.22
2018-08-24T14:35:20.789Z,29.15
2018-08-24T14:37:50.221Z,29.56
2018-08-24T14:40:19.135Z,29.57
2018-08-24T14:42:47.790Z,29.47
2018-08-24T14:45:16.487Z,30.06
2018-08-24T14:47:46.180Z,30.36
2018-08-24T14:50:14.791Z,30.60
2018-08-24T14:52:43.525Z,30.67
2018-08-24T14:55:12.298Z,31.06
2018-08-24T14:57:41.316Z,30.94
2018-08-24T15:00:09.947Z,30.77
2018-08-24T15:02:38.795Z,30.53
2018-08-24T15:05:09.437Z,30.70
2018-08-24T15:07:38.188Z,29.90
2018-08-24T15:10:07.272Z,29.08
2018-08-24T15:12:35.826Z,28.48
2018-08-24T15:15:04.681Z,27.80
2018-08-24T15:17:33.561Z,27.36
2018-08-24T15:20:03.695Z,26.99
2018-08-24T15:22:32.820Z,26.74
2018-08-24T15:25:01.572Z,26.59
2018-08-24T15:27:30.710Z,26.50
2018-08-24T15:29:59.461Z,26.41
2018-08-24T15:32:28.142Z,26.31
2018-08-24T15:34:57.178Z,26.25
2018-08-24T15:37:26.075Z,26.18
2018-08-24T15:39:54.927Z,26.04
2018-08-24T15:42:23.650Z,25.95
2018-08-24T15:44:52.282Z,25.84
2018-08-24T15:47:21.233Z,25.73
2018-08-24T15:49:49.975Z,25.64
2018-08-24T15:52:18.761Z,25.52
2018-08-24T15:54:47.622Z,25.38
2018-08-24T15:57:16.198Z,25.28
2018-08-24T15:59:44.785Z,25.15
2018-08-24T16:02:13.456Z,25.05
2018-08-24T16:04:42.161Z,24.95
2018-08-24T16:07:10.845Z,24.88
2018-08-24T16:09:39.558Z,24.78
2018-08-24T16:12:08.674Z,24.66
2018-08-24T16:14:37.286Z,23.83
2018-08-24T16:17:06.512Z,22.68
2018-08-24T16:19:35.214Z,22.06
2018-08-24T16:25:25.365Z,21.18
2018-08-24T16:27:54.201Z,21.08
2018-08-24T16:30:22.928Z,20.96
2018-08-24T16:32:51.579Z,20.90
2018-08-24T16:35:20.506Z,20.86
2018-08-24T16:37:50.267Z,20.83
2018-08-24T16:40:19.258Z,20.79
2018-08-24T16:42:48.697Z,20.79
2018-08-24T16:45:17.347Z,20.75
2018-08-24T16:47:47.419Z,20.71
2018-08-24T16:50:16.323Z,20.67
2018-08-24T16:52:44.980Z,20.60
2018-08-24T16:55:14.919Z,20.57
2018-08-24T16:57:43.621Z,20.53
2018-08-24T17:00:12.361Z,20.56
2018-08-24T17:02:41.159Z,20.58
2018-08-24T17:05:09.861Z,20.60
2018-08-24T17:07:38.580Z,20.64
2018-08-24T17:10:08.640Z,20.68
2018-08-24T17:12:37.543Z,20.75
2018-08-24T17:15:06.651Z,20.78
2018-08-24T17:17:35.461Z,20.77
2018-08-24T17:20:05.237Z,20.76
2018-08-24T17:22:34.075Z,20.74
2018-08-24T17:25:03.438Z,20.70
2018-08-24T17:27:32.100Z,20.71
2018-08-24T17:30:00.755Z,20.78
2018-08-24T17:32:29.445Z,20.81
2018-08-24T17:34:58.182Z,20.81
2018-08-24T17:37:27.077Z,20.84
2018-08-24T17:39:55.778Z,20.85
2018-08-24T17:42:24.648Z,20.84
2018-08-24T17:44:53.388Z,20.87
2018-08-24T17:47:23.153Z,20.87
2018-08-24T17:49:52.837Z,20.89
2018-08-24T17:52:21.446Z,20.86
2018-08-24T17:54:50.129Z,20.85
2018-08-24T17:57:19.380Z,20.79
2018-08-24T17:59:48.073Z,20.78
2018-08-24T18:02:16.969Z,20.79
2018-08-24T18:04:45.828Z,20.79
2018-08-24T18:07:14.587Z,20.82
2018-08-24T18:09:43.925Z,20.84
2018-08-24T18:12:13.621Z,20.81
2018-08-24T18:14:42.299Z,20.76
2018-08-24T18:17:10.934Z,20.73
2018-08-24T18:19:39.592Z,20.71
2018-08-24T18:22:08.550Z,20.70
2018-08-24T18:24:38.240Z,20.65
2018-08-24T18:27:07.042Z,20.60
2018-08-24T18:29:35.752Z,20.53
2018-08-24T18:32:04.441Z,20.46
2018-08-24T18:34:33.075Z,20.40
2018-08-24T18:37:01.687Z,20.29
2018-08-24T18:39:31.349Z,20.21
2018-08-24T18:42:00.035Z,20.14
2018-08-24T18:44:28.653Z,20.05
2018-08-24T18:46:57.973Z,19.95
2018-08-24T18:49:26.726Z,19.89
2018-08-24T18:51:57.400Z,19.81
2018-08-24T18:54:26.125Z,19.76
2018-08-24T18:56:54.876Z,19.70
2018-08-24T18:59:23.829Z,19.67
2018-08-24T19:01:53.405Z,19.65
2018-08-24T19:04:22.173Z,19.60
2018-08-24T19:06:50.904Z,19.58
2018-08-24T19:09:19.625Z,19.55
2018-08-24T19:11:53.473Z,19.53
2018-08-24T19:14:22.290Z,19.48
2018-08-24T19:16:51.010Z,19.40
2018-08-24T19:19:25.639Z,19.35
2018-08-24T19:21:58.686Z,19.29
2018-08-24T19:24:27.441Z,19.29
2018-08-24T19:26:56.147Z,19.27
2018-08-24T19:29:31.129Z,19.27
2018-08-24T19:31:59.842Z,19.25
2018-08-24T19:34:28.596Z,19.21
2018-08-24T19:36:57.316Z,19.18
2018-08-24T19:39:25.987Z,19.17
2018-08-24T19:41:59.983Z,19.14
2018-08-24T19:44:28.713Z,19.14
2018-08-24T19:46:57.553Z,19.16
2018-08-24T19:49:26.527Z,19.16
2018-08-24T19:51:55.312Z,19.16
2018-08-24T19:54:24.571Z,19.16
2018-08-24T19:56:53.273Z,19.16
2018-08-24T19:59:22.021Z,19.17
2018-08-24T20:01:50.665Z,19.20
2018-08-24T20:04:19.382Z,19.22
2018-08-24T20:06:53.272Z,19.21
2018-08-24T20:09:27.091Z,19.22
2018-08-24T20:11:55.865Z,19.21
2018-08-24T20:14:29.912Z,19.21
2018-08-24T20:17:04.651Z,19.22
2018-08-24T20:19:33.515Z,19.21
2018-08-24T20:22:02.178Z,19.23
2018-08-24T20:24:31.159Z,19.24
2018-08-24T20:26:59.708Z,19.25
2018-08-24T20:29:28.460Z,19.27
2018-08-24T20:31:57.172Z,19.31
2018-08-24T20:34:25.789Z,19.36
2018-08-24T20:36:54.539Z,19.41
2018-08-24T20:39:23.226Z,19.44
2018-08-24T20:41:52.164Z,19.47
2018-08-24T20:44:21.646Z,19.50
2018-08-24T20:46:50.407Z,19.51
2018-08-24T20:49:19.563Z,19.51
2018-08-24T20:51:48.406Z,19.48
2018-08-24T20:54:17.078Z,19.47
2018-08-24T21:00:50.105Z,19.49
2018-08-24T21:03:18.848Z,19.47
2018-08-24T21:05:47.642Z,19.45
2018-08-24T21:08:16.225Z,19.44
2018-08-24T21:10:44.953Z,19.43
2018-08-24T21:13:13.561Z,19.43
2018-08-24T21:15:42.271Z,19.41
2018-08-24T21:18:11.131Z,19.40
2018-08-24T21:20:39.841Z,19.38
2018-08-24T21:23:08.752Z,19.37
2018-08-24T21:25:37.477Z,19.36
2018-08-24T21:28:07.258Z,19.34
2018-08-24T21:30:36.982Z,19.34
2018-08-24T21:33:06.105Z,19.34
2018-08-24T21:35:35.878Z,19.33
2018-08-24T21:38:04.664Z,19.33
2018-08-24T21:40:33.281Z,19.32
2018-08-24T21:43:01.960Z,19.30
2018-08-24T21:45:31.521Z,19.29
2018-08-24T21:48:01.004Z,19.26
2018-08-24T21:50:30.359Z,19.25
2018-08-24T21:52:59.103Z,19.23
2018-08-24T21:55:27.878Z,19.24
2018-08-24T21:57:57.472Z,19.24
2018-08-24T22:00:26.740Z,19.23
2018-08-24T22:02:55.446Z,19.20
2018-08-24T22:05:24.117Z,19.13
2018-08-24T22:07:53.017Z,19.08
2018-08-24T22:10:21.772Z,19.02
2018-08-24T22:12:50.576Z,18.94
2018-08-24T22:15:20.974Z,18.87
2018-08-24T22:17:50.922Z,18.77
2018-08-24T22:20:21.466Z,18.65
2018-08-24T22:22:52.497Z,18.56
2018-08-24T22:25:21.284Z,18.45
2018-08-24T22:27:50.028Z,18.39
2018-08-24T22:30:18.843Z,18.31
2018-08-24T22:32:48.794Z,18.26
2018-08-24T22:35:17.618Z,18.22
2018-08-24T22:37:46.308Z,18.18
2018-08-24T22:40:14.922Z,18.14
2018-08-24T22:42:44.287Z,18.16
2018-08-24T22:45:14.280Z,18.14
2018-08-24T22:47:43.040Z,18.16
2018-08-24T22:50:11.724Z,18.16
2018-08-24T22:52:40.919Z,18.13
2018-08-24T22:55:10.156Z,18.14
2018-08-24T22:57:38.831Z,18.12
2018-08-24T23:00:07.698Z,18.11
2018-08-24T23:02:36.415Z,18.09
2018-08-24T23:05:05.184Z,18.08
2018-08-24T23:07:33.860Z,18.06
2018-08-24T23:10:02.472Z,18.04
2018-08-24T23:12:31.191Z,18.03
2018-08-24T23:14:59.921Z,18.04
2018-08-24T23:17:28.584Z,18.04
2018-08-24T23:19:57.399Z,18.01
2018-08-24T23:22:26.121Z,17.91
2018-08-24T23:24:54.745Z,17.83
2018-08-24T23:27:23.647Z,17.78
2018-08-24T23:29:52.525Z,17.72
2018-08-24T23:32:21.145Z,17.64
2018-08-24T23:34:49.982Z,17.57
2018-08-24T23:37:18.708Z,17.53
2018-08-24T23:39:47.712Z,17.48
2018-08-24T23:42:16.448Z,17.43
2018-08-24T23:44:45.179Z,17.40
2018-08-24T23:47:13.867Z,17.36
2018-08-24T23:49:42.537Z,17.31
2018-08-24T23:52:11.444Z,17.26
2018-08-24T23:54:40.129Z,17.23
2018-08-24T23:57:08.722Z,17.20
2018-08-24T23:59:37.581Z,17.16
